Time;durP1;ratioP1;P1;durP2;ratioP2;P2;SDS_P1;SDS_P2;PMS_P1;PMS_P2;Temp;Humidity;BMP_temperature;BMP_pressure;BME280_temperature;BME280_humidity;BME280_pressure;Samples;Min_cycle;Max_cycle;Signal;HPM_P1;HPM_P2
2023/12/17 00:01:34;;;;;;;17.47;11.10;;;7.80;99.90;;;;;;5075655;28;20249;-70
2023/12/17 00:04:00;;;;;;;17.87;9.90;;;7.90;99.90;;;;;;5075332;28;20204;-70
2023/12/17 00:06:26;;;;;;;13.73;10.57;;;7.90;99.90;;;;;;5075549;28;20185;-70
2023/12/17 00:08:52;;;;;;;16.57;10.80;;;7.90;99.90;;;;;;5075875;28;20632;-71
2023/12/17 00:11:18;;;;;;;14.70;10.13;;;7.90;99.90;;;;;;5074237;28;20182;-69
2023/12/17 00:13:44;;;;;;;14.37;9.97;;;7.90;99.90;;;;;;5071307;28;20574;-71
2023/12/17 00:16:09;;;;;;;12.83;9.60;;;7.90;99.90;;;;;;5055705;28;20167;-70
2023/12/17 00:18:35;;;;;;;14.07;10.10;;;7.90;99.90;;;;;;5055287;28;20182;-70
2023/12/17 00:21:01;;;;;;;12.23;10.00;;;7.90;99.90;;;;;;5055339;28;20170;-70
2023/12/17 00:23:27;;;;;;;10.43;9.03;;;7.90;99.90;;;;;;5055810;28;20646;-70
2023/12/17 00:25:53;;;;;;;11.77;9.50;;;7.90;99.90;;;;;;5054313;28;20182;-71
2023/12/17 00:28:18;;;;;;;13.27;9.33;;;7.80;99.90;;;;;;5054484;28;20186;-72
2023/12/17 00:30:45;;;;;;;18.07;10.27;;;7.80;99.90;;;;;;5055679;28;20193;-70
2023/12/17 00:33:11;;;;;;;11.57;9.50;;;7.90;99.90;;;;;;5055152;28;20186;-71
2023/12/17 00:35:37;;;;;;;13.73;10.17;;;7.90;99.90;;;;;;5053847;28;20179;-69
2023/12/17 00:38:03;;;;;;;13.47;9.70;;;7.90;99.90;;;;;;5055028;28;20221;-70
2023/12/17 00:40:28;;;;;;;10.27;8.97;;;7.90;99.90;;;;;;5053513;28;20667;-70
2023/12/17 00:42:54;;;;;;;14.77;9.87;;;7.80;99.90;;;;;;5054802;28;20174;-70
2023/12/17 00:45:20;;;;;;;13.40;9.80;;;7.80;99.90;;;;;;5054413;28;20194;-70
2023/12/17 00:47:46;;;;;;;13.63;9.57;;;7.80;99.90;;;;;;5054161;28;20171;-69
2023/12/17 00:50:11;;;;;;;13.27;9.57;;;7.90;99.90;;;;;;5054695;28;20214;-69
2023/12/17 00:52:37;;;;;;;11.97;9.80;;;7.90;99.90;;;;;;5054688;28;20217;-69
2023/12/17 00:55:03;;;;;;;12.47;9.63;;;7.90;99.90;;;;;;5053446;28;20599;-69
2023/12/17 00:57:29;;;;;;;13.23;9.43;;;7.90;99.90;;;;;;5054991;28;20174;-70
2023/12/17 00:59:55;;;;;;;13.10;9.97;;;7.90;99.90;;;;;;5053411;28;20553;-70
2023/12/17 01:02:21;;;;;;;13.73;9.80;;;7.90;99.90;;;;;;5054518;28;20169;-71
2023/12/17 01:04:46;;;;;;;18.37;11.10;;;7.90;99.90;;;;;;5054359;28;20644;-70
2023/12/17 01:07:12;;;;;;;13.80;10.50;;;7.80;99.90;;;;;;5054399;28;20178;-70
2023/12/17 01:09:38;;;;;;;15.03;10.30;;;7.90;99.90;;;;;;5054471;28;20198;-70
2023/12/17 01:12:05;;;;;;;17.67;10.63;;;7.90;99.90;;;;;;5054092;28;20209;-70
2023/12/17 01:14:34;;;;;;;14.63;11.27;;;7.90;99.90;;;;;;5054073;28;20186;-71
2023/12/17 01:17:01;;;;;;;15.63;10.93;;;7.90;99.90;;;;;;5053879;28;20171;-70
2023/12/17 01:19:27;;;;;;;14.63;10.77;;;7.90;99.90;;;;;;5052722;28;20218;-70
2023/12/17 01:21:53;;;;;;;12.77;10.33;;;7.90;99.90;;;;;;5052890;28;20228;-69
2023/12/17 01:24:19;;;;;;;14.30;11.23;;;7.90;99.90;;;;;;5054678;28;20166;-70
2023/12/17 01:26:45;;;;;;;18.27;12.00;;;7.90;99.90;;;;;;5054249;28;20647;-70
2023/12/17 01:29:10;;;;;;;18.47;12.13;;;7.90;99.90;;;;;;5053971;28;20569;-70
2023/12/17 01:31:36;;;;;;;15.87;12.90;;;7.90;99.90;;;;;;5053814;28;20175;-70
2023/12/17 01:34:02;;;;;;;16.10;12.03;;;7.90;99.90;;;;;;5053444;28;20252;-70
2023/12/17 01:36:28;;;;;;;20.33;12.57;;;7.90;99.90;;;;;;5053692;28;20170;-69
2023/12/17 01:38:54;;;;;;;19.93;13.20;;;7.90;99.90;;;;;;5053814;28;20558;-70
2023/12/17 01:41:19;;;;;;;18.13;12.70;;;7.90;99.90;;;;;;5053706;28;20183;-70
2023/12/17 01:43:45;;;;;;;16.27;12.47;;;7.90;99.90;;;;;;5053702;28;20201;-70
2023/12/17 01:46:11;;;;;;;17.23;12.03;;;7.90;99.90;;;;;;5053753;28;20647;-70
2023/12/17 01:48:37;;;;;;;17.10;11.93;;;8.00;99.90;;;;;;5053626;28;20190;-69
2023/12/17 01:51:03;;;;;;;15.40;11.50;;;7.90;99.90;;;;;;5054390;28;20640;-70
2023/12/17 01:53:29;;;;;;;15.27;11.53;;;7.90;99.90;;;;;;5053071;28;20222;-70
2023/12/17 01:55:55;;;;;;;14.53;11.83;;;7.90;99.90;;;;;;5054375;28;20185;-70
2023/12/17 01:58:21;;;;;;;15.87;12.07;;;7.90;99.90;;;;;;5054100;28;20170;-70
2023/12/17 02:00:48;;;;;;;18.23;12.77;;;7.90;99.90;;;;;;5053665;28;20205;-70
2023/12/17 02:03:15;;;;;;;15.57;11.67;;;7.90;99.90;;;;;;5053352;28;20181;-70
2023/12/17 02:05:43;;;;;;;16.77;13.20;;;7.90;99.90;;;;;;5053454;28;20182;-70
2023/12/17 02:08:09;;;;;;;19.07;13.43;;;7.90;99.90;;;;;;5053485;28;20526;-70
2023/12/17 02:10:35;;;;;;;16.23;13.57;;;7.90;99.90;;;;;;5053363;28;20239;-70
2023/12/17 02:13:01;;;;;;;18.43;13.37;;;7.90;99.90;;;;;;5052011;28;20198;-70
2023/12/17 02:15:27;;;;;;;17.13;12.87;;;7.90;99.90;;;;;;5053912;28;20569;-70
2023/12/17 02:17:53;;;;;;;16.10;12.40;;;7.90;99.90;;;;;;5053049;28;20182;-69
2023/12/17 02:20:19;;;;;;;17.80;13.40;;;7.90;99.90;;;;;;5053474;28;20201;-70
2023/12/17 02:22:50;;;;;;;16.03;12.70;;;7.90;99.90;;;;;;5052061;28;20559;-69
2023/12/17 02:25:16;;;;;;;18.80;13.13;;;7.90;99.90;;;;;;5053845;28;20166;-69
2023/12/17 02:27:43;;;;;;;18.17;13.43;;;7.80;99.90;;;;;;5053766;28;20166;-69
2023/12/17 02:30:10;;;;;;;21.93;13.07;;;7.80;99.90;;;;;;5053050;28;20264;-70
2023/12/17 02:32:35;;;;;;;19.00;13.43;;;7.80;99.90;;;;;;5051483;28;20610;-69
2023/12/17 02:35:01;;;;;;;17.37;13.53;;;7.80;99.90;;;;;;5051700;28;20277;-68
2023/12/17 02:37:28;;;;;;;21.77;14.43;;;7.80;99.90;;;;;;5051789;28;20178;-69
2023/12/17 02:39:54;;;;;;;18.40;13.67;;;7.80;99.90;;;;;;5052942;28;20190;-69
2023/12/17 02:42:21;;;;;;;21.00;13.40;;;7.80;99.90;;;;;;5053273;28;20182;-69
2023/12/17 02:44:47;;;;;;;17.97;12.90;;;7.80;99.90;;;;;;5052344;28;20215;-69
2023/12/17 02:47:13;;;;;;;17.97;13.17;;;7.80;99.90;;;;;;5051201;28;20210;-69
2023/12/17 02:49:41;;;;;;;17.97;13.47;;;7.80;99.90;;;;;;5051348;28;20699;-70
2023/12/17 02:52:07;;;;;;;18.37;13.33;;;7.80;99.90;;;;;;5052981;28;20170;-70
2023/12/17 02:54:33;;;;;;;19.63;14.60;;;7.80;99.90;;;;;;5052742;28;20232;-70
2023/12/17 02:56:58;;;;;;;16.50;12.87;;;7.80;99.90;;;;;;5052655;28;20169;-70
2023/12/17 02:59:24;;;;;;;18.23;13.70;;;7.80;99.90;;;;;;5053076;28;20243;-70
2023/12/17 03:01:51;;;;;;;19.07;13.67;;;7.80;99.90;;;;;;5052638;28;20205;-69
2023/12/17 03:04:17;;;;;;;17.70;12.60;;;7.80;99.90;;;;;;5051146;28;20677;-69
2023/12/17 03:06:43;;;;;;;20.50;13.87;;;7.80;99.90;;;;;;5052596;28;20170;-69
2023/12/17 03:09:11;;;;;;;17.63;12.73;;;7.80;99.90;;;;;;5053396;28;20193;-69
2023/12/17 03:11:36;;;;;;;18.50;12.93;;;7.80;99.90;;;;;;5055345;28;20174;-70
2023/12/17 03:14:02;;;;;;;20.03;13.57;;;7.80;99.90;;;;;;5055028;28;20260;-70
2023/12/17 03:16:29;;;;;;;19.63;13.93;;;7.80;99.90;;;;;;5055120;28;20244;-70
2023/12/17 03:18:55;;;;;;;21.20;15.47;;;7.80;99.90;;;;;;5054791;28;20191;-70
2023/12/17 03:21:23;;;;;;;19.50;13.87;;;7.90;99.90;;;;;;5056356;28;20219;-70
2023/12/17 03:23:50;;;;;;;17.87;13.57;;;7.90;99.90;;;;;;5055272;28;20583;-69
2023/12/17 03:26:16;;;;;;;19.30;13.90;;;7.90;99.90;;;;;;5056238;28;20201;-70
2023/12/17 03:28:42;;;;;;;19.13;14.20;;;7.80;99.90;;;;;;5054776;28;20206;-70
2023/12/17 03:31:11;;;;;;;18.17;13.37;;;7.80;99.90;;;;;;5054969;28;20212;-69
2023/12/17 03:33:37;;;;;;;18.00;13.40;;;7.80;99.90;;;;;;5054658;28;20198;-70
2023/12/17 03:36:03;;;;;;;20.07;13.37;;;7.80;99.90;;;;;;5056306;28;20258;-70
2023/12/17 03:38:28;;;;;;;18.13;13.67;;;7.80;99.90;;;;;;5055870;28;20175;-70
2023/12/17 03:40:54;;;;;;;20.50;13.87;;;7.80;99.90;;;;;;5054620;28;20174;-70
2023/12/17 03:43:20;;;;;;;19.40;14.00;;;7.80;99.90;;;;;;5054801;28;20261;-70
2023/12/17 03:45:45;;;;;;;19.07;13.97;;;7.80;99.90;;;;;;5055865;28;20174;-70
2023/12/17 03:48:11;;;;;;;17.70;13.40;;;7.80;99.90;;;;;;5055596;28;20187;-70
2023/12/17 03:50:38;;;;;;;20.53;14.23;;;7.80;99.90;;;;;;5054376;28;20214;-70
2023/12/17 03:53:10;;;;;;;20.93;14.30;;;7.80;99.90;;;;;;5056073;28;20195;-70
2023/12/17 03:55:39;;;;;;;19.90;14.07;;;7.80;99.90;;;;;;5055992;28;20155;-70
2023/12/17 03:58:05;;;;;;;18.17;13.87;;;7.70;99.90;;;;;;5055707;28;20186;-70
2023/12/17 04:00:31;;;;;;;20.27;14.20;;;7.70;99.90;;;;;;5055661;28;20202;-70
2023/12/17 04:02:56;;;;;;;20.67;14.70;;;7.70;99.90;;;;;;5055373;28;20181;-69
2023/12/17 04:05:25;;;;;;;18.87;13.90;;;7.70;99.90;;;;;;5055531;28;20175;-70
2023/12/17 04:07:52;;;;;;;18.77;13.97;;;7.70;99.90;;;;;;5055386;28;20228;-70
2023/12/17 04:10:18;;;;;;;21.97;15.53;;;7.70;99.90;;;;;;5055439;28;20190;-70
2023/12/17 04:12:43;;;;;;;21.53;14.83;;;7.70;99.90;;;;;;5054155;28;20737;-69
2023/12/17 04:15:09;;;;;;;22.97;14.57;;;7.70;99.90;;;;;;5055591;28;20178;-70
2023/12/17 04:17:35;;;;;;;21.50;15.47;;;7.70;99.90;;;;;;5055759;28;20537;-69
2023/12/17 04:20:01;;;;;;;19.07;14.43;;;7.70;99.90;;;;;;5053822;28;20281;-70
2023/12/17 04:22:26;;;;;;;20.07;15.07;;;7.70;99.90;;;;;;5055485;28;20245;-70
2023/12/17 04:24:52;;;;;;;21.13;15.37;;;7.70;99.90;;;;;;5055267;28;20598;-70
2023/12/17 04:27:18;;;;;;;20.30;14.80;;;7.70;99.90;;;;;;5055812;28;20178;-70
2023/12/17 04:29:45;;;;;;;20.23;14.80;;;7.70;99.90;;;;;;5055254;28;20228;-70
2023/12/17 04:32:11;;;;;;;20.30;15.60;;;7.70;99.90;;;;;;5055011;28;20166;-70
2023/12/17 04:34:37;;;;;;;18.47;14.60;;;7.70;99.90;;;;;;5054693;28;20251;-70
2023/12/17 04:37:03;;;;;;;20.10;14.67;;;7.70;99.90;;;;;;5053667;28;20171;-70
2023/12/17 04:39:29;;;;;;;20.67;14.43;;;7.70;99.90;;;;;;5053552;28;20202;-70
2023/12/17 04:41:54;;;;;;;22.37;14.90;;;7.70;99.90;;;;;;5054875;28;20170;-70
2023/12/17 04:44:20;;;;;;;19.50;14.53;;;7.70;99.90;;;;;;5053487;28;20198;-70
2023/12/17 04:46:46;;;;;;;22.63;15.40;;;7.70;99.90;;;;;;5055204;28;20666;-70
2023/12/17 04:49:12;;;;;;;22.93;15.93;;;7.70;99.90;;;;;;5054337;28;20697;-70
2023/12/17 04:51:37;;;;;;;22.73;15.50;;;7.70;99.90;;;;;;5053643;28;20178;-71
2023/12/17 04:54:03;;;;;;;19.57;14.37;;;7.70;99.90;;;;;;5053378;28;20206;-70
2023/12/17 04:56:29;;;;;;;22.50;15.37;;;7.70;99.90;;;;;;5054849;28;20546;-71
2023/12/17 04:58:55;;;;;;;21.07;14.60;;;7.70;99.90;;;;;;5054607;28;20656;-70
2023/12/17 05:01:21;;;;;;;19.87;14.43;;;7.70;99.90;;;;;;5054627;28;20178;-69
2023/12/17 05:03:46;;;;;;;20.63;12.97;;;7.70;99.90;;;;;;5053116;28;20186;-70
2023/12/17 05:06:12;;;;;;;19.20;13.27;;;7.70;99.90;;;;;;5054949;28;20182;-70
2023/12/17 05:08:38;;;;;;;19.23;14.13;;;7.70;99.90;;;;;;5054379;28;20232;-70
2023/12/17 05:11:04;;;;;;;17.37;12.87;;;7.70;99.90;;;;;;5053150;28;20207;-70
2023/12/17 05:13:30;;;;;;;21.67;13.47;;;7.70;99.90;;;;;;5054248;28;20679;-70
2023/12/17 05:15:56;;;;;;;18.80;13.50;;;7.70;99.90;;;;;;5054667;28;20181;-70
2023/12/17 05:18:22;;;;;;;18.93;13.37;;;7.70;99.90;;;;;;5052881;28;20171;-70
2023/12/17 05:20:48;;;;;;;19.27;12.57;;;7.70;99.90;;;;;;5054394;28;20252;-70
2023/12/17 05:23:14;;;;;;;19.00;13.20;;;7.70;99.90;;;;;;5054603;28;20178;-70
2023/12/17 05:25:40;;;;;;;16.60;12.33;;;7.70;99.90;;;;;;5052951;28;20663;-69
2023/12/17 05:28:08;;;;;;;14.23;11.27;;;7.70;99.90;;;;;;5052794;28;20644;-70
2023/12/17 05:30:35;;;;;;;18.07;13.43;;;7.70;99.90;;;;;;5052782;28;20203;-70
2023/12/17 05:33:01;;;;;;;16.40;12.30;;;7.70;99.90;;;;;;5053472;28;20317;-70
2023/12/17 05:35:27;;;;;;;15.50;12.17;;;7.70;99.90;;;;;;5053955;28;20178;-70
2023/12/17 05:37:53;;;;;;;13.97;11.77;;;7.70;99.90;;;;;;5052641;28;20248;-70
2023/12/17 05:40:19;;;;;;;15.13;10.90;;;7.70;99.90;;;;;;5054159;28;20660;-70
2023/12/17 05:42:44;;;;;;;16.50;11.80;;;7.70;99.90;;;;;;5053718;28;20256;-70
2023/12/17 05:45:10;;;;;;;15.37;11.60;;;7.70;99.90;;;;;;5053756;28;20212;-70
2023/12/17 05:47:38;;;;;;;13.60;10.77;;;7.70;99.90;;;;;;5053485;28;20178;-70
2023/12/17 05:50:04;;;;;;;15.17;11.47;;;7.70;99.90;;;;;;5053291;28;20707;-70
2023/12/17 05:52:30;;;;;;;13.03;10.83;;;7.70;99.90;;;;;;5053545;28;20186;-70
2023/12/17 05:54:55;;;;;;;13.60;10.53;;;7.70;99.90;;;;;;5053829;28;20175;-70
2023/12/17 05:57:21;;;;;;;13.67;11.10;;;7.70;99.90;;;;;;5053596;28;20178;-70
2023/12/17 05:59:47;;;;;;;15.10;11.93;;;7.70;99.90;;;;;;5052279;28;20195;-69
2023/12/17 06:02:13;;;;;;;14.37;11.03;;;7.70;99.90;;;;;;5052184;28;20190;-70
2023/12/17 06:04:39;;;;;;;16.77;11.60;;;7.80;99.90;;;;;;5053174;28;20174;-70
2023/12/17 06:07:05;;;;;;;15.63;11.83;;;7.70;99.90;;;;;;5053379;28;20652;-70
2023/12/17 06:09:31;;;;;;;15.43;11.40;;;7.70;99.90;;;;;;5053299;28;20207;-70
2023/12/17 06:11:57;;;;;;;11.90;10.20;;;7.70;99.90;;;;;;5052074;28;20277;-70
2023/12/17 06:14:23;;;;;;;14.47;10.37;;;7.70;99.90;;;;;;5051943;28;20249;-70
2023/12/17 06:16:49;;;;;;;12.93;10.40;;;7.70;99.90;;;;;;5053215;28;20173;-69
2023/12/17 06:19:15;;;;;;;14.47;10.10;;;7.70;99.90;;;;;;5051588;28;20578;-70
2023/12/17 06:21:41;;;;;;;14.93;10.93;;;7.70;99.90;;;;;;5053266;28;20179;-70
2023/12/17 06:24:07;;;;;;;12.30;10.93;;;7.70;99.90;;;;;;5053295;28;20182;-69
2023/12/17 06:26:36;;;;;;;12.53;10.00;;;7.80;99.90;;;;;;5051812;28;20186;-69
2023/12/17 06:29:01;;;;;;;12.00;9.70;;;7.80;99.90;;;;;;5051735;28;20209;-71
2023/12/17 06:31:28;;;;;;;12.70;10.23;;;7.80;99.90;;;;;;5051848;28;20182;-70
2023/12/17 06:33:54;;;;;;;13.87;9.77;;;7.80;99.90;;;;;;5052786;28;20193;-69
2023/12/17 06:36:20;;;;;;;11.33;9.47;;;7.80;99.90;;;;;;5051731;28;20731;-70
2023/12/17 06:38:47;;;;;;;12.73;9.73;;;7.80;99.90;;;;;;5053148;28;20177;-71
2023/12/17 06:41:13;;;;;;;13.17;9.83;;;7.80;99.90;;;;;;5052040;28;20666;-70
2023/12/17 06:43:42;;;;;;;10.83;9.27;;;7.80;99.90;;;;;;5052980;28;20241;-71
2023/12/17 06:46:14;;;;;;;12.00;10.20;;;7.80;99.90;;;;;;5057409;28;20184;-70
2023/12/17 06:48:41;;;;;;;11.87;9.97;;;7.80;99.90;;;;;;5057008;28;20277;-71
2023/12/17 06:51:07;;;;;;;12.47;10.20;;;7.80;99.90;;;;;;5055793;28;20192;-70
2023/12/17 06:53:33;;;;;;;10.93;9.30;;;7.80;99.90;;;;;;5057104;28;20198;-70
2023/12/17 06:55:58;;;;;;;10.97;9.07;;;7.80;99.90;;;;;;5056866;28;20591;-69
2023/12/17 06:58:24;;;;;;;12.27;9.67;;;7.80;99.90;;;;;;5055535;28;20189;-70
2023/12/17 07:00:50;;;;;;;13.57;10.07;;;7.80;99.90;;;;;;5057042;28;20574;-71
2023/12/17 07:03:20;;;;;;;13.77;10.50;;;7.80;99.90;;;;;;5055685;28;20183;-71
2023/12/17 07:05:46;;;;;;;15.10;11.13;;;7.80;99.90;;;;;;5057463;28;20194;-71
2023/12/17 07:08:11;;;;;;;15.07;11.43;;;7.80;99.90;;;;;;5057101;28;20171;-69
2023/12/17 07:10:37;;;;;;;13.03;10.23;;;7.80;99.90;;;;;;5056635;28;20202;-70
2023/12/17 07:13:06;;;;;;;14.17;11.03;;;7.70;99.90;;;;;;5057105;28;20194;-70
2023/12/17 07:15:32;;;;;;;11.87;10.07;;;7.70;99.90;;;;;;5056547;28;20189;-70
2023/12/17 07:17:58;;;;;;;13.63;10.37;;;7.70;99.90;;;;;;5056877;28;20178;-71
2023/12/17 07:20:23;;;;;;;15.80;11.57;;;7.70;99.90;;;;;;5055007;28;20234;-70
2023/12/17 07:22:49;;;;;;;14.00;10.83;;;7.70;99.90;;;;;;5056779;28;20183;-71
2023/12/17 07:25:17;;;;;;;12.13;9.87;;;7.70;99.90;;;;;;5055548;28;20183;-71
2023/12/17 07:27:43;;;;;;;14.17;10.70;;;7.70;99.90;;;;;;5056568;28;20159;-70
2023/12/17 07:30:09;;;;;;;12.43;10.40;;;7.70;99.90;;;;;;5055595;28;20198;-70
2023/12/17 07:32:35;;;;;;;13.87;10.63;;;7.70;99.90;;;;;;5057453;28;20174;-70
2023/12/17 07:35:03;;;;;;;12.47;10.33;;;7.70;99.90;;;;;;5055778;28;20177;-70
2023/12/17 07:37:28;;;;;;;11.70;9.67;;;7.70;99.90;;;;;;5055148;28;20213;-71
2023/12/17 07:39:55;;;;;;;12.43;11.20;;;7.70;99.90;;;;;;5056876;28;20229;-70
2023/12/17 07:42:21;;;;;;;12.60;10.57;;;7.60;99.90;;;;;;5056444;28;20155;-70
2023/12/17 07:44:47;;;;;;;13.30;10.83;;;7.70;99.90;;;;;;5054921;28;20212;-71
2023/12/17 07:47:13;;;;;;;11.17;9.60;;;7.70;99.90;;;;;;5056855;28;20170;-71
2023/12/17 07:49:39;;;;;;;11.83;10.17;;;7.60;99.90;;;;;;5055688;28;20210;-70
2023/12/17 07:52:04;;;;;;;12.27;10.97;;;7.60;99.90;;;;;;5056280;28;20163;-70
2023/12/17 07:54:32;;;;;;;11.47;10.10;;;7.60;99.90;;;;;;5055749;28;20737;-69
2023/12/17 07:56:58;;;;;;;12.73;10.63;;;7.70;99.90;;;;;;5054417;28;20179;-70
2023/12/17 07:59:25;;;;;;;12.50;10.07;;;7.60;99.90;;;;;;5056074;28;20189;-71
2023/12/17 08:01:51;;;;;;;12.30;9.47;;;7.60;99.90;;;;;;5056492;28;20155;-70
2023/12/17 08:04:18;;;;;;;12.07;9.60;;;7.70;99.90;;;;;;5056077;28;20163;-71
2023/12/17 08:06:44;;;;;;;12.00;10.70;;;7.60;99.90;;;;;;5054953;28;20175;-71
2023/12/17 08:09:10;;;;;;;14.97;11.10;;;7.70;99.90;;;;;;5056533;28;20194;-70
2023/12/17 08:11:36;;;;;;;13.07;10.27;;;7.70;99.90;;;;;;5055809;28;20181;-69
2023/12/17 08:14:03;;;;;;;13.87;10.90;;;7.70;99.90;;;;;;5056291;28;20591;-70
2023/12/17 08:16:30;;;;;;;14.73;12.03;;;7.70;99.90;;;;;;5056745;28;20162;-70
2023/12/17 08:18:55;;;;;;;12.13;10.70;;;7.70;99.90;;;;;;5057670;28;20187;-71
2023/12/17 08:21:21;;;;;;;16.27;11.77;;;7.60;99.90;;;;;;5068784;28;20719;-79
2023/12/17 08:23:47;;;;;;;14.00;11.33;;;7.60;99.90;;;;;;5057160;28;20181;-71
2023/12/17 08:26:13;;;;;;;13.03;11.40;;;7.60;99.90;;;;;;5056067;28;20228;-70
2023/12/17 08:28:38;;;;;;;13.40;11.00;;;7.60;99.90;;;;;;5054139;28;20674;-70
2023/12/17 08:31:09;;;;;;;14.40;10.57;;;7.60;99.90;;;;;;5055541;28;20179;-69
2023/12/17 08:33:36;;;;;;;12.97;10.90;;;7.70;99.90;;;;;;5053685;28;20522;-70
2023/12/17 08:36:02;;;;;;;11.63;9.90;;;7.60;99.90;;;;;;5055156;28;20170;-70
2023/12/17 08:38:27;;;;;;;12.10;10.43;;;7.60;99.90;;;;;;5055303;28;20175;-70
2023/12/17 08:40:54;;;;;;;14.27;10.10;;;7.70;99.90;;;;;;5055303;28;20269;-70
2023/12/17 08:43:20;;;;;;;14.23;11.17;;;7.70;99.90;;;;;;5055052;28;20644;-70
2023/12/17 08:45:46;;;;;;;14.67;10.73;;;7.70;99.90;;;;;;5053813;28;20190;-70
2023/12/17 08:48:12;;;;;;;13.73;10.40;;;7.70;99.90;;;;;;5054683;28;20260;-70
2023/12/17 08:50:38;;;;;;;15.97;11.27;;;7.70;99.90;;;;;;5053121;28;20584;-70
2023/12/17 08:53:04;;;;;;;14.73;10.97;;;7.70;99.90;;;;;;5054935;28;20202;-68
2023/12/17 08:55:30;;;;;;;13.40;10.57;;;7.70;99.90;;;;;;5054901;28;20727;-70
2023/12/17 08:57:55;;;;;;;13.37;10.53;;;7.70;99.90;;;;;;5054653;28;20200;-71
2023/12/17 09:00:21;;;;;;;15.17;11.17;;;7.70;99.90;;;;;;5054637;28;20277;-71
2023/12/17 09:02:47;;;;;;;14.93;11.13;;;7.70;99.90;;;;;;5054594;28;20184;-70
2023/12/17 09:05:13;;;;;;;14.80;10.63;;;7.70;99.90;;;;;;5054494;28;20167;-71
2023/12/17 09:07:39;;;;;;;11.83;9.93;;;7.80;99.90;;;;;;5053650;28;20617;-70
2023/12/17 09:10:05;;;;;;;12.83;10.50;;;7.80;99.90;;;;;;5053222;28;20218;-71
2023/12/17 09:12:31;;;;;;;13.23;10.23;;;7.70;99.90;;;;;;5053081;28;20178;-70
2023/12/17 09:14:56;;;;;;;13.63;10.43;;;7.70;99.90;;;;;;5054578;28;20543;-71
2023/12/17 09:17:24;;;;;;;13.37;11.17;;;7.70;99.90;;;;;;5054498;28;20237;-70
2023/12/17 09:19:50;;;;;;;14.50;10.90;;;7.70;99.90;;;;;;5054799;28;20639;-71
2023/12/17 09:22:17;;;;;;;13.90;10.93;;;7.70;99.90;;;;;;5052980;28;20601;-71
2023/12/17 09:24:44;;;;;;;15.63;11.43;;;7.70;99.90;;;;;;5053128;28;20643;-70
2023/12/17 09:27:09;;;;;;;14.33;11.40;;;7.70;99.90;;;;;;5054262;28;20158;-70
2023/12/17 09:29:35;;;;;;;17.80;11.67;;;7.70;99.90;;;;;;5054217;28;20208;-70
2023/12/17 09:32:01;;;;;;;15.50;11.07;;;7.70;99.90;;;;;;5054060;28;20227;-69
2023/12/17 09:34:27;;;;;;;14.30;10.83;;;7.70;99.90;;;;;;5053778;28;20186;-70
2023/12/17 09:36:53;;;;;;;17.27;11.00;;;7.70;99.90;;;;;;5053979;28;20316;-68
2023/12/17 09:39:19;;;;;;;14.37;10.57;;;7.70;99.90;;;;;;5053887;28;20682;-71
2023/12/17 09:41:45;;;;;;;15.73;11.63;;;7.70;99.90;;;;;;5052539;28;20174;-70
2023/12/17 09:44:10;;;;;;;17.43;11.30;;;7.70;99.90;;;;;;5052546;28;20729;-70
2023/12/17 09:46:36;;;;;;;16.03;11.53;;;7.70;99.90;;;;;;5053743;28;20297;-71
2023/12/17 09:49:02;;;;;;;14.07;11.03;;;7.60;99.90;;;;;;5053290;28;20209;-72
2023/12/17 09:51:29;;;;;;;18.33;12.00;;;7.70;99.90;;;;;;5052454;28;20187;-70
2023/12/17 09:53:57;;;;;;;16.33;12.50;;;7.70;99.90;;;;;;5052307;28;20252;-70
2023/12/17 09:56:22;;;;;;;17.10;11.53;;;7.70;99.90;;;;;;5053603;28;20246;-71
2023/12/17 09:58:50;;;;;;;16.73;11.33;;;7.60;99.90;;;;;;5053551;28;20675;-69
2023/12/17 10:01:16;;;;;;;17.93;11.90;;;7.60;99.90;;;;;;5053659;28;20257;-70
2023/12/17 10:03:41;;;;;;;18.03;12.47;;;7.60;99.90;;;;;;5053854;28;20178;-70
2023/12/17 10:06:07;;;;;;;19.60;13.00;;;7.70;99.90;;;;;;5052546;28;20186;-70
2023/12/17 10:08:36;;;;;;;17.77;12.80;;;7.70;99.90;;;;;;5052150;28;20248;-71
2023/12/17 10:11:02;;;;;;;18.87;11.80;;;7.70;99.90;;;;;;5053463;28;20185;-71
2023/12/17 10:13:28;;;;;;;19.40;12.63;;;7.70;99.90;;;;;;5053202;28;20585;-71
2023/12/17 10:15:55;;;;;;;15.60;10.80;;;7.70;99.90;;;;;;5051883;28;20640;-70
2023/12/17 10:18:22;;;;;;;15.03;11.33;;;7.70;99.90;;;;;;5053454;28;20186;-70
2023/12/17 10:20:49;;;;;;;15.67;12.30;;;7.70;99.90;;;;;;5051731;28;20218;-71
2023/12/17 10:23:15;;;;;;;14.77;11.40;;;7.70;99.90;;;;;;5053667;28;20178;-70
2023/12/17 10:25:42;;;;;;;15.63;11.30;;;7.80;99.90;;;;;;5053312;28;20167;-71
2023/12/17 10:28:12;;;;;;;13.93;10.83;;;7.80;99.90;;;;;;5051790;28;20182;-70
2023/12/17 10:30:41;;;;;;;14.93;11.47;;;7.80;99.90;;;;;;5051897;28;20208;-70
2023/12/17 10:33:10;;;;;;;13.40;9.73;;;7.80;99.90;;;;;;5051849;28;20697;-71
2023/12/17 10:35:37;;;;;;;13.60;9.73;;;7.80;99.90;;;;;;5052691;28;20240;-71
2023/12/17 10:38:08;;;;;;;13.53;10.80;;;7.80;99.90;;;;;;5051793;28;20191;-71
2023/12/17 10:40:35;;;;;;;15.00;10.47;;;7.80;99.90;;;;;;5052939;28;20198;-70
2023/12/17 10:43:03;;;;;;;12.73;10.00;;;7.80;99.90;;;;;;5053344;28;20694;-70
2023/12/17 10:45:31;;;;;;;13.40;10.60;;;7.90;99.90;;;;;;5052877;28;20197;-70
2023/12/17 10:47:59;;;;;;;12.57;9.90;;;7.90;99.90;;;;;;5052752;28;20662;-71
2023/12/17 10:50:26;;;;;;;11.10;9.33;;;7.90;99.90;;;;;;5052597;28;20604;-70
2023/12/17 10:52:53;;;;;;;12.63;8.60;;;8.00;99.90;;;;;;5051589;28;20674;-71
2023/12/17 10:55:19;;;;;;;10.13;8.83;;;8.00;99.90;;;;;;5051654;28;20186;-70
2023/12/17 10:58:07;;;;;;;10.57;8.53;;;8.00;99.90;;;;;;5052814;28;20179;-70
2023/12/17 11:00:35;;;;;;;11.07;9.23;;;8.00;99.90;;;;;;5051477;28;20289;-71
2023/12/17 11:03:06;;;;;;;11.47;8.40;;;8.00;99.90;;;;;;5053046;28;20200;-69
2023/12/17 11:05:32;;;;;;;10.57;8.70;;;8.10;99.90;;;;;;5051255;28;20174;-70
2023/12/17 11:07:58;;;;;;;12.07;8.73;;;8.10;99.90;;;;;;5053071;28;20205;-70
2023/12/17 11:10:25;;;;;;;12.17;8.70;;;8.10;99.90;;;;;;5052711;28;20198;-71
2023/12/17 11:12:51;;;;;;;11.77;8.00;;;8.10;99.90;;;;;;5051399;28;20206;-71
2023/12/17 11:15:21;;;;;;;10.07;8.83;;;8.10;99.90;;;;;;5052798;28;20721;-70
2023/12/17 11:17:51;;;;;;;10.07;8.03;;;8.10;99.90;;;;;;5051408;28;20225;-71
2023/12/17 11:20:17;;;;;;;10.17;8.77;;;8.20;99.90;;;;;;5050916;28;20222;-70
2023/12/17 11:22:43;;;;;;;12.20;8.67;;;8.20;99.90;;;;;;5052769;28;20562;-71
2023/12/17 11:25:11;;;;;;;9.03;7.57;;;8.20;99.90;;;;;;5052624;28;20179;-70
2023/12/17 11:27:38;;;;;;;9.47;7.60;;;8.20;99.90;;;;;;5052600;28;20178;-71
2023/12/17 11:30:28;;;;;;;9.03;8.13;;;8.20;99.90;;;;;;5051779;28;20356;-71
2023/12/17 11:32:55;;;;;;;9.87;8.30;;;8.20;99.90;;;;;;5055271;28;20206;-70
2023/12/17 11:35:21;;;;;;;9.63;7.63;;;8.20;99.90;;;;;;5056477;28;20717;-71
2023/12/17 11:37:47;;;;;;;7.80;7.00;;;8.20;99.90;;;;;;5056862;28;20170;-71
2023/12/17 11:40:14;;;;;;;9.87;7.43;;;8.30;99.90;;;;;;5056429;28;20222;-70
2023/12/17 11:42:40;;;;;;;9.10;7.53;;;8.40;99.90;;;;;;5056806;28;20177;-70
2023/12/17 11:45:07;;;;;;;7.73;6.93;;;8.60;99.90;;;;;;5056124;28;20186;-71
2023/12/17 11:47:33;;;;;;;7.23;6.53;;;8.70;99.90;;;;;;5056642;28;20213;-70
2023/12/17 11:49:59;;;;;;;8.60;7.10;;;8.70;99.90;;;;;;5055662;28;20210;-70
2023/12/17 11:52:25;;;;;;;7.60;6.80;;;8.70;99.90;;;;;;5056070;28;20250;-70
2023/12/17 11:54:58;;;;;;;7.20;6.50;;;8.80;99.90;;;;;;5055755;28;20622;-70
2023/12/17 11:57:25;;;;;;;6.73;5.93;;;9.00;99.90;;;;;;5055894;28;20178;-71
2023/12/17 11:59:51;;;;;;;7.90;6.00;;;9.20;99.90;;;;;;5054399;28;20210;-70
2023/12/17 12:02:22;;;;;;;6.70;6.00;;;9.40;99.90;;;;;;5056236;28;20170;-70
2023/12/17 12:04:50;;;;;;;6.67;5.97;;;9.40;99.90;;;;;;5055474;28;20281;-71
2023/12/17 12:07:20;;;;;;;6.27;5.67;;;9.40;99.90;;;;;;5056073;28;20710;-70
2023/12/17 12:09:47;;;;;;;6.77;6.07;;;9.50;99.90;;;;;;5055665;28;20198;-71
2023/12/17 12:12:19;;;;;;;6.47;5.80;;;9.50;99.90;;;;;;5055617;28;20178;-71
2023/12/17 12:14:50;;;;;;;6.90;6.05;;;9.60;99.90;;;;;;5055497;28;20683;-70
2023/12/17 12:17:41;;;;;;;8.47;6.47;;;9.70;99.90;;;;;;5054306;28;20177;-71
2023/12/17 12:20:14;;;;;;;6.57;5.93;;;9.90;99.90;;;;;;5053936;28;20195;-70
2023/12/17 12:22:42;;;;;;;6.77;6.17;;;9.70;99.90;;;;;;5054204;28;20232;-70
2023/12/17 12:25:10;;;;;;;7.53;6.77;;;9.80;99.90;;;;;;5055654;28;20232;-71
2023/12/17 12:27:37;;;;;;;8.03;7.23;;;9.80;99.90;;;;;;5055729;28;20566;-70
2023/12/17 12:30:03;;;;;;;8.70;6.67;;;9.70;99.90;;;;;;5055178;28;20229;-70
2023/12/17 12:32:29;;;;;;;9.87;7.57;;;9.60;99.90;;;;;;5055612;28;20167;-71
2023/12/17 12:34:55;;;;;;;7.90;7.10;;;9.50;99.90;;;;;;5055029;28;20296;-68
2023/12/17 12:37:34;;;;;;;8.67;7.63;;;9.50;99.90;;;;;;5055328;28;20228;-71